WIDD/BTH METAR and TAF weather

Enter ICAO airport designator
Station Type Date Time Source
WIDD METAR 2019/09/20 20:30 UTC NOAA

WIDD 202030Z AUTO 13003KT 100V160 5000NDV ////// 26/24 Q1011


Station Type Date Time Source
WIDD Decoded METAR 2019/09/20 20:30 UTC NOAA

Station name not available
Sep 20, 2019 - 04:30 PM EDT / 2019.09.20 2030 UTC
Wind: from the SE (130 degrees) at 3 MPH (3 KT) (direction variable):0
Temperature: 78 F (26 C)
Dew Point: 75 F (24 C)
Relative Humidity: 88%
Pressure (altimeter): 29.85 in. Hg (1011 hPa)
ob: WIDD 202030Z AUTO 13003KT 100V160 5000NDV ////// 26/24 Q1011
cycle: 20

Station Type Date Time Source
WIDD TAF 2019/09/20 18:00 UTC NOAA

TAF WIDD 201700Z 2018/2118 14005KT 6000 FEW014=

Example: see airport list